Aérodrome :
LOGIN :

S'inscrire | Disclaimer

   EN    FR    IT 

 










Légende :    VFR   VFR Marginal   IFR   IFR Intensif   IFR Très Intensif
Visi : 
Plafond : 
>= 8 km
>= 3000ft
5 à 8 km
1000 à 3000 ft
1500m à 5 km
500 à 1000 ft
800 à 1500m
200 à 500 ft
< 800m
< 200 ft
Symboles :   Orages  Brouillard  Fortes neiges  Fortes précipitations  Vent > 20 kt
SIGMETs :   Divers  Orages  Givrage  Turbulence  Onde Orograph.  Cendres Volcan.






- Altitude de l'aérodrome : 257 ft
- Code IATA : MAN


EGCC - Manchester

DERNIER METAR :
  • 251550Z 28013KT 9999 FEW013 FEW040CB 06/00 Q0993 TEMPO SHRA

METARs EXPIRÉS :
  • 251520Z 27009KT 9999 FEW013 FEW034CB 06/01 Q0993 TEMPO SHRA
  • 251450Z 25005KT 9999 FEW015CB SCT027 05/02 Q0994 TEMPO SHRA
  • 251420Z 28007KT 250V320 9999 FEW015CB SCT027 BKN036 04/02 Q0994 RERA TEMPO SHRA
  • 251350Z AUTO 29010KT 9999 -RA FEW022/// BKN030/// BKN040/// //////CB 04/02 Q0994 RESHRA RESN TEMPO SHRASN
  • 251320Z AUTO 28013KT 2900 +RASN SCT014/// BKN028/// BKN042/// //////CB 03/00 Q0995

TAF TAF EGCC
Valide du 25 à 12h jusqu'au 26 à 18h UTC


251103Z 2512/2618 26010KT 9999 FEW012 SCT030
TEMPO 2512/2519 7000 SHRA BKN012
PROB30
TEMPO 2512/2519 27016G26KT 2000 SHRASN +SHGS BKN006 BKN020CB
TEMPO 2519/2613 30015G25KT 2000 SHRASN +SHGS BKN006 BKN015CB
PROB30
TEMPO 2519/2609 0600 SHSN BKN002
BECMG 2603/2606 30012KT
PROB30
TEMPO 2613/2618 7000 SHRA BKN014
ATIS : +44 161 499 2324



MET'MAP, la Météo Aéronautique d'un coup d'oeil ! - Copyright ORBIFLY Décembre 2007 - Disclaimer

ORBIFLY MET'MAP TEAM :

Programmation & Développement : Alexandra Zaïnal
Sur une idée originale de : Baudouin d'Aumeries
Assistance à la programmation : Marc-Olivier Méhu
Soutien technique & logistique : Manuel Goepfert

Contact : metmap@orbifly.com




SOURCES & CREDITS :

   NOAA